createdAt,value
2022-07-26T00:02:20.771Z,2.70
2022-07-26T00:04:47.188Z,3.17
2022-07-26T00:07:13.575Z,2.92
2022-07-26T00:09:42.698Z,2.88
2022-07-26T00:12:11.398Z,3.15
2022-07-26T00:14:37.776Z,2.90
2022-07-26T00:17:05.785Z,2.35
2022-07-26T00:19:32.338Z,2.70
2022-07-26T00:22:35.925Z,3.10
2022-07-26T00:25:04.695Z,2.53
2022-07-26T00:27:32.251Z,2.55
2022-07-26T00:29:58.756Z,2.80
2022-07-26T00:32:25.250Z,2.97
2022-07-26T00:34:52.762Z,2.55
2022-07-26T00:37:20.786Z,2.72
2022-07-26T00:39:48.320Z,2.55
2022-07-26T00:42:15.150Z,3.08
2022-07-26T00:44:43.810Z,2.85
2022-07-26T00:47:12.016Z,3.03
2022-07-26T00:49:38.647Z,2.20
2022-07-26T00:52:05.949Z,2.50
2022-07-26T00:54:32.832Z,2.33
2022-07-26T00:56:59.636Z,2.45
2022-07-26T00:59:26.120Z,2.25
2022-07-26T01:01:52.858Z,2.38
2022-07-26T01:04:19.591Z,2.10
2022-07-26T01:06:48.041Z,2.35
2022-07-26T01:09:14.687Z,2.60
2022-07-26T01:11:41.142Z,2.33
2022-07-26T01:14:07.938Z,2.63
2022-07-26T01:16:35.008Z,2.33
2022-07-26T01:19:01.493Z,2.85
2022-07-26T01:21:30.146Z,2.03
2022-07-26T01:23:56.842Z,2.22
2022-07-26T01:26:23.317Z,1.83
2022-07-26T01:28:52.551Z,2.08
2022-07-26T01:31:19.112Z,2.42
2022-07-26T01:33:46.048Z,2.20
2022-07-26T01:36:12.699Z,2.10
2022-07-26T01:38:42.673Z,2.20
2022-07-26T01:41:09.543Z,1.85
2022-07-26T01:43:36.532Z,2.13
2022-07-26T01:46:05.075Z,2.22
2022-07-26T01:48:31.594Z,1.98
2022-07-26T01:50:58.348Z,2.30
2022-07-26T01:53:24.785Z,2.10
2022-07-26T01:55:51.464Z,2.47
2022-07-26T01:58:18.101Z,2.20
2022-07-26T02:00:44.530Z,2.50
2022-07-26T02:03:11.183Z,1.85
2022-07-26T02:05:37.683Z,1.67
2022-07-26T02:08:04.537Z,2.42
2022-07-26T02:10:49.646Z,2.03
2022-07-26T02:13:16.532Z,1.63
2022-07-26T02:15:43.006Z,2.28
2022-07-26T02:18:09.514Z,2.10
2022-07-26T02:20:35.891Z,2.20
2022-07-26T02:23:04.016Z,2.08
2022-07-26T02:25:30.766Z,1.60
2022-07-26T02:27:58.075Z,2.22
2022-07-26T02:30:24.747Z,2.00
2022-07-26T02:32:51.151Z,1.92
2022-07-26T02:35:17.666Z,1.83
2022-07-26T02:37:44.213Z,2.10
2022-07-26T02:40:14.306Z,2.20
2022-07-26T02:42:45.032Z,1.75
2022-07-26T02:45:11.523Z,1.75
2022-07-26T02:47:46.402Z,1.75
2022-07-26T02:50:13.078Z,1.58
2022-07-26T02:52:39.531Z,1.83
2022-07-26T02:55:06.603Z,1.90
2022-07-26T02:57:45.492Z,1.98
2022-07-26T03:00:17.940Z,2.87
2022-07-26T03:05:11.162Z,1.92
2022-07-26T03:07:37.578Z,1.70
2022-07-26T03:10:04.734Z,2.00
2022-07-26T03:12:31.431Z,2.25
2022-07-26T03:14:57.813Z,2.40
2022-07-26T03:17:24.360Z,1.98
2022-07-26T03:19:50.845Z,1.90
2022-07-26T03:22:17.479Z,1.67
2022-07-26T03:24:43.869Z,2.40
2022-07-26T03:27:10.309Z,2.33
2022-07-26T03:29:37.414Z,2.10
2022-07-26T03:32:04.098Z,1.73
2022-07-26T03:34:30.515Z,2.10
2022-07-26T03:36:56.963Z,2.38
2022-07-26T03:39:23.433Z,1.90
2022-07-26T03:41:49.824Z,2.03
2022-07-26T03:44:16.224Z,1.75
2022-07-26T03:46:42.702Z,1.88
2022-07-26T03:49:12.068Z,1.80
2022-07-26T03:51:42.611Z,2.28
2022-07-26T03:54:09.532Z,1.75
2022-07-26T03:56:36.357Z,1.75
2022-07-26T03:59:05.546Z,1.42
2022-07-26T04:01:32.963Z,1.30
2022-07-26T04:03:59.551Z,1.55
2022-07-26T04:06:25.930Z,1.73
2022-07-26T04:08:53.211Z,2.05
2022-07-26T04:11:19.756Z,1.70
2022-07-26T04:13:46.166Z,2.28
2022-07-26T04:16:13.126Z,1.55
2022-07-26T04:18:39.670Z,1.88
2022-07-26T04:21:06.357Z,1.40
2022-07-26T04:23:32.778Z,1.48
2022-07-26T04:25:59.269Z,1.73
2022-07-26T04:28:28.814Z,1.70
2022-07-26T04:30:59.698Z,2.03
2022-07-26T04:33:26.449Z,1.92
2022-07-26T04:35:53.613Z,1.73
2022-07-26T04:38:20.200Z,1.63
2022-07-26T04:40:46.584Z,1.70
2022-07-26T04:43:15.917Z,1.60
2022-07-26T04:45:43.623Z,1.85
2022-07-26T04:48:10.079Z,2.47
2022-07-26T04:50:36.617Z,2.05
2022-07-26T04:53:04.766Z,1.70
2022-07-26T04:55:31.227Z,1.48
2022-07-26T04:57:57.805Z,1.85
2022-07-26T05:00:25.145Z,2.35
2022-07-26T05:02:57.616Z,1.80
2022-07-26T05:05:25.997Z,1.65
2022-07-26T05:07:54.664Z,2.13
2022-07-26T05:10:22.658Z,1.70
2022-07-26T05:12:49.537Z,1.45
2022-07-26T05:15:16.371Z,1.70
2022-07-26T05:17:43.577Z,1.90
2022-07-26T05:20:12.138Z,1.67
2022-07-26T05:22:38.594Z,1.67
2022-07-26T05:25:06.950Z,1.40
2022-07-26T05:27:33.486Z,1.90
2022-07-26T05:30:00.036Z,1.35
2022-07-26T05:32:28.071Z,1.50
2022-07-26T05:34:54.609Z,1.42
2022-07-26T05:37:21.078Z,2.13
2022-07-26T05:39:47.457Z,1.52
2022-07-26T05:42:13.899Z,1.77
2022-07-26T05:44:42.405Z,1.65
2022-07-26T05:47:09.614Z,1.67
2022-07-26T05:49:40.079Z,1.60
2022-07-26T05:52:08.054Z,2.47
2022-07-26T05:54:34.711Z,1.42
2022-07-26T05:57:01.173Z,1.58
2022-07-26T05:59:28.150Z,1.40
2022-07-26T06:01:57.577Z,1.45
2022-07-26T06:04:26.552Z,1.42
2022-07-26T06:06:54.529Z,1.60
2022-07-26T06:09:21.480Z,1.25
2022-07-26T06:11:47.951Z,1.45
2022-07-26T06:14:14.794Z,1.85
2022-07-26T06:16:41.569Z,1.50
2022-07-26T06:19:08.116Z,1.70
2022-07-26T06:21:34.566Z,1.40
2022-07-26T06:24:01.102Z,1.50
2022-07-26T06:26:27.482Z,1.60
2022-07-26T06:28:53.985Z,1.60
2022-07-26T06:31:20.480Z,1.40
2022-07-26T06:33:47.473Z,1.55
2022-07-26T06:36:14.003Z,1.58
2022-07-26T06:38:40.533Z,1.67
2022-07-26T06:41:07.036Z,1.40
2022-07-26T06:43:33.501Z,1.35
2022-07-26T06:46:00.042Z,1.48
2022-07-26T06:48:26.777Z,1.35
2022-07-26T06:50:53.296Z,1.30
2022-07-26T06:53:19.788Z,1.33
2022-07-26T06:55:46.216Z,1.15
2022-07-26T06:58:12.676Z,1.70
2022-07-26T07:00:39.235Z,1.58
2022-07-26T07:03:05.734Z,1.75
2022-07-26T07:05:32.899Z,1.40
2022-07-26T07:07:59.416Z,1.40
2022-07-26T07:10:26.415Z,1.45
2022-07-26T07:12:52.826Z,1.30
2022-07-26T07:15:19.230Z,1.70
2022-07-26T07:17:45.664Z,1.30
2022-07-26T07:20:12.511Z,1.52
2022-07-26T07:22:38.931Z,1.40
2022-07-26T07:25:06.065Z,1.30
2022-07-26T07:27:33.120Z,1.73
2022-07-26T07:29:59.832Z,1.27
2022-07-26T07:32:26.542Z,1.58
2022-07-26T07:34:54.944Z,1.98
2022-07-26T07:37:21.478Z,1.80
2022-07-26T07:39:50.205Z,1.60
2022-07-26T07:42:17.049Z,1.45
2022-07-26T07:44:43.593Z,1.40
2022-07-26T07:47:10.147Z,1.60
2022-07-26T07:49:36.771Z,1.55
2022-07-26T07:52:03.925Z,1.30
2022-07-26T07:54:30.412Z,1.10
2022-07-26T07:56:56.840Z,1.38
2022-07-26T07:59:23.723Z,1.88
2022-07-26T08:01:50.453Z,1.20
2022-07-26T08:04:17.040Z,1.60
2022-07-26T08:06:50.953Z,1.60
2022-07-26T08:09:18.849Z,1.23
2022-07-26T08:11:45.694Z,1.20
2022-07-26T08:14:17.693Z,1.23
2022-07-26T08:16:44.736Z,1.67
2022-07-26T08:19:11.550Z,1.92
2022-07-26T08:21:38.294Z,1.58
2022-07-26T08:24:04.902Z,2.15
2022-07-26T08:26:31.338Z,1.77
2022-07-26T08:28:59.799Z,1.90
2022-07-26T08:31:28.198Z,1.95
2022-07-26T08:33:55.100Z,1.85
2022-07-26T08:36:21.562Z,2.22
2022-07-26T08:38:48.523Z,1.88
2022-07-26T08:41:17.765Z,2.08
2022-07-26T08:43:52.760Z,2.00
2022-07-26T08:46:25.887Z,1.63
2022-07-26T08:48:54.265Z,1.88
2022-07-26T08:51:23.123Z,1.60
2022-07-26T08:53:53.934Z,1.45
2022-07-26T08:56:20.351Z,1.60
2022-07-26T08:58:46.799Z,1.45
2022-07-26T09:01:13.886Z,1.48
2022-07-26T09:03:41.908Z,1.70
2022-07-26T09:06:12.133Z,1.65
2022-07-26T09:08:38.758Z,1.70
2022-07-26T09:11:23.185Z,1.58
2022-07-26T09:13:54.986Z,2.03
2022-07-26T09:16:21.650Z,1.75
2022-07-26T09:18:48.271Z,1.70
2022-07-26T09:21:32.358Z,1.70
2022-07-26T09:23:59.709Z,1.48
2022-07-26T09:26:26.567Z,1.70
2022-07-26T09:29:08.741Z,1.42
2022-07-26T09:31:38.091Z,1.50
2022-07-26T09:34:07.117Z,1.27
2022-07-26T09:36:49.447Z,1.70
2022-07-26T09:39:15.899Z,1.33
2022-07-26T09:41:42.435Z,1.30
2022-07-26T09:44:25.824Z,1.60
2022-07-26T09:46:57.439Z,1.80
2022-07-26T09:49:29.630Z,1.83
2022-07-26T09:52:15.770Z,1.60
2022-07-26T09:54:45.868Z,1.88
2022-07-26T09:57:16.170Z,1.60
2022-07-26T09:59:43.159Z,1.50
2022-07-26T10:02:10.348Z,2.15
2022-07-26T10:04:36.875Z,2.10
2022-07-26T10:07:03.934Z,2.40
2022-07-26T10:10:01.694Z,1.98
2022-07-26T10:12:32.437Z,1.50
2022-07-26T10:14:58.999Z,1.90
2022-07-26T10:17:30.817Z,1.70
2022-07-26T10:20:04.538Z,2.00
2022-07-26T10:22:40.167Z,1.70
2022-07-26T10:25:32.755Z,2.20
2022-07-26T10:27:59.187Z,1.95
2022-07-26T10:30:34.468Z,2.17
2022-07-26T10:33:10.502Z,1.90
2022-07-26T10:35:40.114Z,2.30
2022-07-26T10:38:22.078Z,2.00
2022-07-26T10:41:07.884Z,2.63
2022-07-26T10:43:42.846Z,1.88
2022-07-26T10:46:18.641Z,2.13
2022-07-26T10:48:59.962Z,1.70
2022-07-26T10:51:29.468Z,1.90
2022-07-26T10:54:13.560Z,1.70
2022-07-26T10:56:40.584Z,1.85
2022-07-26T10:59:07.231Z,2.15
2022-07-26T11:01:33.647Z,2.53
2022-07-26T11:04:00.327Z,2.00
2022-07-26T11:06:30.151Z,2.20
2022-07-26T11:08:56.598Z,2.10
2022-07-26T11:11:31.274Z,2.15
2022-07-26T11:14:11.687Z,1.80
2022-07-26T11:16:39.706Z,1.98
2022-07-26T11:19:20.191Z,1.90
2022-07-26T11:21:53.268Z,2.40
2022-07-26T11:24:21.853Z,1.90
2022-07-26T11:26:48.598Z,2.17
2022-07-26T11:29:17.451Z,2.15
2022-07-26T11:31:51.389Z,1.75
2022-07-26T11:34:27.953Z,1.67
2022-07-26T11:36:57.733Z,1.80
2022-07-26T11:39:26.663Z,2.00
2022-07-26T11:41:58.358Z,2.10
2022-07-26T11:44:25.293Z,2.05
2022-07-26T11:46:51.795Z,1.90
2022-07-26T11:49:19.576Z,1.80
2022-07-26T11:51:57.500Z,1.98
2022-07-26T11:54:27.257Z,1.92
2022-07-26T11:56:58.801Z,2.10
2022-07-26T11:59:27.776Z,2.25
2022-07-26T12:01:55.465Z,1.65
2022-07-26T12:04:27.987Z,1.80
2022-07-26T12:06:56.400Z,1.58
2022-07-26T12:09:35.999Z,2.63
2022-07-26T12:12:08.639Z,2.33
2022-07-26T12:14:37.805Z,2.40
2022-07-26T12:17:15.614Z,2.20
2022-07-26T12:19:43.466Z,2.28
2022-07-26T12:22:15.364Z,2.03
2022-07-26T12:24:43.403Z,2.70
2022-07-26T12:27:15.713Z,2.50
2022-07-26T12:29:44.813Z,2.08
2022-07-26T12:32:20.167Z,2.33
2022-07-26T12:35:08.922Z,2.30
2022-07-26T12:37:41.035Z,2.00
2022-07-26T12:40:41.518Z,2.40
2022-07-26T12:43:08.573Z,2.25
2022-07-26T12:45:36.049Z,1.98
2022-07-26T12:48:10.013Z,2.03
2022-07-26T12:50:36.784Z,2.25
2022-07-26T12:53:07.738Z,2.88
2022-07-26T12:55:35.346Z,2.35
2022-07-26T12:58:01.876Z,2.97
2022-07-26T13:00:28.753Z,2.25
2022-07-26T13:02:57.079Z,2.47
2022-07-26T13:05:23.576Z,2.60
2022-07-26T13:07:51.523Z,2.90
2022-07-26T13:10:35.011Z,2.78
2022-07-26T13:13:02.282Z,3.45
2022-07-26T13:15:36.381Z,3.00
2022-07-26T13:18:06.239Z,3.08
2022-07-26T13:20:32.872Z,3.75
2022-07-26T13:22:59.364Z,2.70
2022-07-26T13:25:26.059Z,2.97
2022-07-26T13:27:56.472Z,2.50
2022-07-26T13:30:22.996Z,2.78
2022-07-26T13:32:49.635Z,2.30
2022-07-26T13:35:16.039Z,2.80
2022-07-26T13:37:42.419Z,2.97
2022-07-26T13:40:09.451Z,2.42
2022-07-26T13:42:37.997Z,2.38
2022-07-26T13:45:06.521Z,2.63
2022-07-26T13:47:32.953Z,2.40
2022-07-26T13:49:59.405Z,2.42
2022-07-26T13:52:25.860Z,2.70
2022-07-26T13:54:52.407Z,2.30
2022-07-26T13:57:18.784Z,2.47
2022-07-26T13:59:45.257Z,2.65
2022-07-26T14:02:11.773Z,2.38
2022-07-26T14:04:39.324Z,2.35
2022-07-26T14:07:05.744Z,2.97
2022-07-26T14:09:32.194Z,2.38
2022-07-26T14:11:58.667Z,3.17
2022-07-26T14:14:25.138Z,2.30
2022-07-26T14:16:51.946Z,2.38
2022-07-26T14:19:18.586Z,2.58
2022-07-26T14:21:58.771Z,2.42
2022-07-26T14:24:26.957Z,2.47
2022-07-26T14:26:58.624Z,2.55
2022-07-26T14:29:26.063Z,2.20
2022-07-26T14:31:53.074Z,2.47
2022-07-26T14:34:19.633Z,2.22
2022-07-26T14:36:46.022Z,2.72
2022-07-26T14:39:12.424Z,2.30
2022-07-26T14:41:38.960Z,2.47
2022-07-26T14:44:05.639Z,2.28
2022-07-26T14:46:32.170Z,2.13
2022-07-26T14:48:58.764Z,2.33
2022-07-26T14:51:25.556Z,2.50
2022-07-26T14:53:51.971Z,2.30
2022-07-26T14:56:18.477Z,2.33
2022-07-26T14:58:44.889Z,2.08
2022-07-26T15:01:11.388Z,2.45
2022-07-26T15:03:37.851Z,2.70
2022-07-26T15:06:04.484Z,2.97
2022-07-26T15:08:30.904Z,2.95
2022-07-26T15:10:57.498Z,2.65
2022-07-26T15:13:24.088Z,3.15
2022-07-26T15:15:50.494Z,2.95
2022-07-26T15:18:17.048Z,3.05
2022-07-26T15:20:43.614Z,3.13
2022-07-26T15:23:11.938Z,3.33
2022-07-26T15:25:38.598Z,3.35
2022-07-26T15:28:05.162Z,3.30
2022-07-26T15:30:32.683Z,3.22
2022-07-26T15:32:59.628Z,3.03
2022-07-26T15:35:26.184Z,3.45
2022-07-26T15:37:52.585Z,3.05
2022-07-26T15:40:20.767Z,3.17
2022-07-26T15:42:48.961Z,2.67
2022-07-26T15:45:16.571Z,2.88
2022-07-26T15:47:54.889Z,3.00
2022-07-26T15:50:25.161Z,2.85
2022-07-26T15:52:51.834Z,3.13
2022-07-26T15:55:19.286Z,2.88
2022-07-26T15:57:46.739Z,3.47
2022-07-26T16:00:14.663Z,2.50
2022-07-26T16:02:41.306Z,2.53
2022-07-26T16:05:09.140Z,2.88
2022-07-26T16:07:35.565Z,2.30
2022-07-26T16:10:01.976Z,2.40
2022-07-26T16:12:29.406Z,2.47
2022-07-26T16:14:55.958Z,2.63
2022-07-26T16:17:22.427Z,2.00
2022-07-26T16:19:48.874Z,2.70
2022-07-26T16:22:16.534Z,2.70
2022-07-26T16:24:43.090Z,2.40
2022-07-26T16:27:09.514Z,2.70
2022-07-26T16:29:35.955Z,2.13
2022-07-26T16:32:02.496Z,2.20
2022-07-26T16:34:30.033Z,1.80
2022-07-26T16:36:56.470Z,2.45
2022-07-26T16:39:22.878Z,1.90
2022-07-26T16:41:49.303Z,1.58
2022-07-26T16:44:15.730Z,2.25
2022-07-26T16:46:42.201Z,2.22
2022-07-26T16:49:11.017Z,2.05
2022-07-26T16:51:37.811Z,1.83
2022-07-26T16:54:04.557Z,2.45
2022-07-26T16:56:30.996Z,2.42
2022-07-26T16:58:57.468Z,2.65
2022-07-26T17:01:24.003Z,2.10
2022-07-26T17:03:50.461Z,2.80
2022-07-26T17:06:16.995Z,2.53
2022-07-26T17:08:43.574Z,2.25
2022-07-26T17:11:10.184Z,2.53
2022-07-26T17:13:36.679Z,2.80
2022-07-26T17:16:03.417Z,2.42
2022-07-26T17:18:30.040Z,2.75
2022-07-26T17:20:57.491Z,2.85
2022-07-26T17:23:23.945Z,2.45
2022-07-26T17:25:50.364Z,1.95
2022-07-26T17:28:17.411Z,2.10
2022-07-26T17:30:43.819Z,2.33
2022-07-26T17:33:10.584Z,2.65
2022-07-26T17:35:37.106Z,3.00
2022-07-26T17:38:04.541Z,2.42
2022-07-26T17:40:31.602Z,2.88
2022-07-26T17:42:58.872Z,2.45
2022-07-26T17:45:25.373Z,2.63
2022-07-26T17:47:51.885Z,2.72
2022-07-26T17:53:05.122Z,2.90
2022-07-26T17:55:31.586Z,2.95
2022-07-26T17:57:57.987Z,3.00
2022-07-26T18:00:28.587Z,2.65
2022-07-26T18:02:56.217Z,3.95
2022-07-26T18:05:23.223Z,2.60
2022-07-26T18:07:51.586Z,2.70
2022-07-26T18:10:19.443Z,2.25
2022-07-26T18:12:45.993Z,2.25
2022-07-26T18:15:12.533Z,2.13
2022-07-26T18:17:39.655Z,2.70
2022-07-26T18:20:06.711Z,2.40
2022-07-26T18:22:33.286Z,2.22
2022-07-26T18:24:59.706Z,2.30
2022-07-26T18:27:28.097Z,2.15
2022-07-26T18:29:55.382Z,2.45
2022-07-26T18:32:22.577Z,3.13
2022-07-26T18:34:52.204Z,3.05
2022-07-26T18:37:20.710Z,2.70
2022-07-26T18:39:47.640Z,2.63
2022-07-26T18:42:14.050Z,2.45
2022-07-26T18:44:40.545Z,2.47
2022-07-26T18:47:07.327Z,2.10
2022-07-26T18:49:34.459Z,2.30
2022-07-26T18:52:08.377Z,3.13
2022-07-26T18:54:35.722Z,2.70
2022-07-26T18:57:02.152Z,2.20
2022-07-26T18:59:29.606Z,2.20
2022-07-26T19:01:57.654Z,2.00
2022-07-26T19:04:24.816Z,2.10
2022-07-26T19:06:51.463Z,1.77
2022-07-26T19:09:18.258Z,1.75
2022-07-26T19:11:47.661Z,2.03
2022-07-26T19:14:14.166Z,1.60
2022-07-26T19:16:40.623Z,1.67
2022-07-26T19:19:07.154Z,2.10
2022-07-26T19:21:33.606Z,2.03
2022-07-26T19:24:00.131Z,1.83
2022-07-26T19:26:27.319Z,1.80
2022-07-26T19:28:53.810Z,2.10
2022-07-26T19:31:20.342Z,1.60
2022-07-26T19:33:46.810Z,1.55
2022-07-26T19:36:13.182Z,2.15
2022-07-26T19:38:48.973Z,2.15
2022-07-26T19:41:16.116Z,1.80
2022-07-26T19:43:42.719Z,1.92
2022-07-26T19:46:09.271Z,1.60
2022-07-26T19:48:35.803Z,1.70
2022-07-26T19:51:02.293Z,1.85
2022-07-26T19:53:28.829Z,1.70
2022-07-26T19:55:55.473Z,1.92
2022-07-26T19:58:21.919Z,2.70
2022-07-26T20:00:53.386Z,2.00
2022-07-26T20:03:19.851Z,1.50
2022-07-26T20:05:46.418Z,1.70
2022-07-26T20:08:13.318Z,1.70
2022-07-26T20:10:39.814Z,1.58
2022-07-26T20:13:06.246Z,1.98
2022-07-26T20:15:32.784Z,1.67
2022-07-26T20:17:59.203Z,1.60
2022-07-26T20:20:25.643Z,1.75
2022-07-26T20:22:52.093Z,1.63
2022-07-26T20:25:21.724Z,1.85
2022-07-26T20:27:51.189Z,1.88
2022-07-26T20:30:18.244Z,1.80
2022-07-26T20:32:44.721Z,1.50
2022-07-26T20:35:11.140Z,1.83
2022-07-26T20:37:37.865Z,1.88
2022-07-26T20:40:04.909Z,1.70
2022-07-26T20:42:33.572Z,1.40
2022-07-26T20:45:00.949Z,1.67
2022-07-26T20:47:27.447Z,1.40
2022-07-26T20:49:53.960Z,1.50
2022-07-26T20:54:52.185Z,1.42
2022-07-26T20:57:18.723Z,1.65
2022-07-26T20:59:45.254Z,1.80
2022-07-26T21:02:11.699Z,1.50
2022-07-26T21:04:38.182Z,1.20
2022-07-26T21:07:04.687Z,1.92
2022-07-26T21:09:31.379Z,1.70
2022-07-26T21:11:57.869Z,1.55
2022-07-26T21:14:24.382Z,1.77
2022-07-26T21:16:50.855Z,1.70
2022-07-26T21:19:17.351Z,1.73
2022-07-26T21:21:43.807Z,1.48
2022-07-26T21:24:11.474Z,1.30
2022-07-26T21:26:38.350Z,1.55
2022-07-26T21:29:05.074Z,1.40
2022-07-26T21:31:31.551Z,1.83
2022-07-26T21:33:57.981Z,1.70
2022-07-26T21:36:24.429Z,1.30
2022-07-26T21:38:50.814Z,1.92
2022-07-26T21:41:17.255Z,1.73
2022-07-26T21:43:43.691Z,2.08
2022-07-26T21:46:12.717Z,1.30
2022-07-26T21:48:40.307Z,1.70
2022-07-26T21:51:06.873Z,1.25
2022-07-26T21:53:33.308Z,1.55
2022-07-26T21:55:59.729Z,1.60
2022-07-26T21:58:28.003Z,1.55
2022-07-26T22:01:03.303Z,1.60
2022-07-26T22:03:35.594Z,1.25
2022-07-26T22:06:02.241Z,1.60
2022-07-26T22:08:28.930Z,1.85
2022-07-26T22:10:55.377Z,1.58
2022-07-26T22:13:21.797Z,2.05
2022-07-26T22:15:48.390Z,1.33
2022-07-26T22:18:14.902Z,1.60
2022-07-26T22:20:42.854Z,1.23
2022-07-26T22:23:11.053Z,1.50
2022-07-26T22:25:38.646Z,1.40
2022-07-26T22:28:07.367Z,1.20
2022-07-26T22:30:34.113Z,1.45
2022-07-26T22:33:02.339Z,1.40
2022-07-26T22:35:33.505Z,1.48
2022-07-26T22:38:05.453Z,1.45
2022-07-26T22:40:32.911Z,1.40
2022-07-26T22:42:59.603Z,1.25
2022-07-26T22:45:26.960Z,1.40
2022-07-26T22:47:55.990Z,1.33
2022-07-26T22:50:23.187Z,1.27
2022-07-26T22:52:51.494Z,1.35
2022-07-26T22:55:17.957Z,1.40
2022-07-26T22:57:44.777Z,1.40
2022-07-26T23:00:13.639Z,1.50
2022-07-26T23:02:40.282Z,1.48
2022-07-26T23:05:07.327Z,1.10
2022-07-26T23:07:35.869Z,1.40
2022-07-26T23:10:03.691Z,1.60
2022-07-26T23:12:40.598Z,1.48
2022-07-26T23:15:10.015Z,1.50
2022-07-26T23:17:36.806Z,1.35
2022-07-26T23:20:08.209Z,1.55
2022-07-26T23:22:35.011Z,1.23
2022-07-26T23:25:01.594Z,1.13
2022-07-26T23:27:27.999Z,1.35
2022-07-26T23:29:57.481Z,1.20
2022-07-26T23:32:23.925Z,1.15
2022-07-26T23:34:50.484Z,1.13
2022-07-26T23:37:16.907Z,1.25
2022-07-26T23:39:43.398Z,1.33
2022-07-26T23:42:09.798Z,1.35
2022-07-26T23:44:36.254Z,0.98
2022-07-26T23:47:02.878Z,1.17
2022-07-26T23:49:29.588Z,1.30
2022-07-26T23:51:56.131Z,1.33
2022-07-26T23:54:22.600Z,1.40
2022-07-26T23:56:49.093Z,1.35
2022-07-26T23:59:15.889Z,2.00
